createdAt,value
2022-12-18T00:00:46.681Z,1003.94
2022-12-18T00:01:48.487Z,1003.95
2022-12-18T00:02:50.451Z,1003.87
2022-12-18T00:03:52.193Z,1003.97
2022-12-18T00:04:53.651Z,1004.02
2022-12-18T00:05:55.338Z,1003.99
2022-12-18T00:06:57.084Z,1004.01
2022-12-18T00:07:58.837Z,1003.96
2022-12-18T00:09:00.568Z,1003.9
2022-12-18T00:10:02.320Z,1003.89
2022-12-18T00:11:04.025Z,1003.95
2022-12-18T00:13:09.941Z,1003.99
2022-12-18T00:14:09.226Z,1003.93
2022-12-18T00:15:10.981Z,1003.95
2022-12-18T00:16:12.820Z,1003.86
2022-12-18T00:17:14.483Z,1003.95
2022-12-18T00:18:20.416Z,1003.93
2022-12-18T00:19:17.887Z,1003.88
2022-12-18T00:20:19.647Z,1003.89
2022-12-18T00:21:21.365Z,1003.92
2022-12-18T00:22:23.136Z,1003.91
2022-12-18T00:23:24.825Z,1003.8
2022-12-18T00:24:26.564Z,1003.87
2022-12-18T00:25:28.304Z,1003.89
2022-12-18T00:26:30.066Z,1003.85
2022-12-18T00:27:31.782Z,1003.84
2022-12-18T00:28:33.513Z,1003.88
2022-12-18T00:29:35.226Z,1003.83
2022-12-18T00:30:37.020Z,1003.87
2022-12-18T00:31:38.873Z,1004.01
2022-12-18T00:32:40.439Z,1003.85
2022-12-18T00:33:42.532Z,1004.05
2022-12-18T00:34:43.942Z,1004.08
2022-12-18T00:35:45.661Z,1004.07
2022-12-18T00:36:47.368Z,1004.04
2022-12-18T00:37:49.135Z,1004.01
2022-12-18T00:38:50.852Z,1004.11
2022-12-18T00:39:52.574Z,1004.03
2022-12-18T00:40:54.537Z,1004.05
2022-12-18T00:41:56.041Z,1004
2022-12-18T00:42:57.769Z,1004.07
2022-12-18T00:43:59.507Z,1003.88
2022-12-18T00:45:01.254Z,1004.03
2022-12-18T00:46:03.116Z,1004.05
2022-12-18T00:47:04.763Z,1004.04
2022-12-18T00:48:06.491Z,1003.95
2022-12-18T00:49:08.201Z,1004.04
2022-12-18T00:50:09.921Z,1003.91
2022-12-18T00:51:11.641Z,1003.97
2022-12-18T00:52:13.398Z,1003.98
2022-12-18T00:53:15.167Z,1003.97
2022-12-18T00:54:16.845Z,1004
2022-12-18T00:55:18.597Z,1004.08
2022-12-18T00:56:20.356Z,1004.03
2022-12-18T00:57:22.058Z,1004.06
2022-12-18T00:58:23.792Z,1004.06
2022-12-18T00:59:25.520Z,1004.12
2022-12-18T01:00:27.347Z,1004.11
2022-12-18T01:01:29.249Z,1004.03
2022-12-18T01:02:30.891Z,1004.03
2022-12-18T01:03:32.540Z,1004.06
2022-12-18T01:04:34.182Z,1004.07
2022-12-18T01:05:35.957Z,1004.19
2022-12-18T01:06:37.663Z,1004.15
2022-12-18T01:07:39.408Z,1004.11
2022-12-18T01:08:41.149Z,1004.05
2022-12-18T01:09:42.856Z,1004.13
2022-12-18T01:10:44.595Z,1004.2
2022-12-18T01:11:46.335Z,1004.09
2022-12-18T01:12:48.109Z,1004.19
2022-12-18T01:13:49.803Z,1004.16
2022-12-18T01:14:51.536Z,1004.13
2022-12-18T01:15:53.274Z,1004.08
2022-12-18T01:16:55.109Z,1004.1
2022-12-18T01:17:56.780Z,1004.05
2022-12-18T01:18:58.502Z,1003.96
2022-12-18T01:20:00.216Z,1003.97
2022-12-18T01:21:01.940Z,1004.12
2022-12-18T01:22:03.676Z,1004.01
2022-12-18T01:23:05.409Z,1004.16
2022-12-18T01:24:07.141Z,1004.28
2022-12-18T01:25:08.879Z,1004.12
2022-12-18T01:26:10.630Z,1004.2
2022-12-18T01:27:12.385Z,1004.2
2022-12-18T01:28:14.077Z,1004.13
2022-12-18T01:29:15.847Z,1004.16
2022-12-18T01:30:18.706Z,1004.16
2022-12-18T01:31:19.385Z,1004.13
2022-12-18T01:32:21.009Z,1004.21
2022-12-18T01:33:22.767Z,1004.18
2022-12-18T01:34:24.486Z,1004.28
2022-12-18T01:35:26.211Z,1004.28
2022-12-18T01:36:27.956Z,1004.26
2022-12-18T01:37:29.679Z,1004.26
2022-12-18T01:38:31.429Z,1004.3
2022-12-18T01:39:33.230Z,1004.3
2022-12-18T01:40:34.892Z,1004.43
2022-12-18T01:41:36.694Z,1004.36
2022-12-18T01:42:38.392Z,1004.49
2022-12-18T01:43:40.538Z,1004.54
2022-12-18T01:44:41.841Z,1004.48
2022-12-18T01:45:43.643Z,1004.42
2022-12-18T01:46:45.271Z,1004.39
2022-12-18T01:47:47.010Z,1004.37
2022-12-18T01:48:48.736Z,1004.39
2022-12-18T01:49:50.490Z,1004.31
2022-12-18T01:50:52.175Z,1004.43
2022-12-18T01:51:53.943Z,1004.39
2022-12-18T01:52:55.683Z,1004.34
2022-12-18T01:53:57.371Z,1004.3
2022-12-18T01:54:59.118Z,1004.25
2022-12-18T01:56:00.845Z,1004.28
2022-12-18T01:57:02.587Z,1004.22
2022-12-18T01:58:04.312Z,1004.25
2022-12-18T01:59:06.090Z,1004.08
2022-12-18T02:00:07.785Z,1004.13
2022-12-18T02:01:09.593Z,1004.12
2022-12-18T02:02:11.321Z,1004.16
2022-12-18T02:03:13.126Z,1004.19
2022-12-18T02:04:14.720Z,1004.23
2022-12-18T02:05:16.447Z,1004.21
2022-12-18T02:06:18.213Z,1004.22
2022-12-18T02:07:19.929Z,1004.2
2022-12-18T02:08:21.680Z,1004.17
2022-12-18T02:09:23.397Z,1004.17
2022-12-18T02:10:25.183Z,1004.06
2022-12-18T02:11:26.864Z,1004.12
2022-12-18T02:12:28.595Z,1004.06
2022-12-18T02:13:30.335Z,1004.08
2022-12-18T02:14:32.058Z,1004.08
2022-12-18T02:15:33.803Z,1004.09
2022-12-18T02:16:35.675Z,1004.13
2022-12-18T02:17:37.292Z,1004.19
2022-12-18T02:18:38.996Z,1004.18
2022-12-18T02:19:40.738Z,1004.2
2022-12-18T02:20:42.477Z,1004.09
2022-12-18T02:21:44.224Z,1004
2022-12-18T02:22:45.928Z,1004.03
2022-12-18T02:23:47.680Z,1004.06
2022-12-18T02:24:49.411Z,1003.99
2022-12-18T02:25:51.134Z,1003.97
2022-12-18T02:26:52.905Z,1004.05
2022-12-18T02:27:54.602Z,1003.84
2022-12-18T02:28:56.348Z,1003.95
2022-12-18T02:29:59.020Z,1003.98
2022-12-18T02:30:59.843Z,1004.02
2022-12-18T02:32:01.575Z,1003.98
2022-12-18T02:33:03.274Z,1004.04
2022-12-18T02:34:05.049Z,1003.91
2022-12-18T02:35:06.774Z,1003.95
2022-12-18T02:36:08.463Z,1004.12
2022-12-18T02:37:10.231Z,1004.08
2022-12-18T02:38:11.947Z,1004.06
2022-12-18T02:39:13.673Z,1003.88
2022-12-18T02:40:15.410Z,1003.94
2022-12-18T02:41:17.143Z,1003.88
2022-12-18T02:42:18.866Z,1003.86
2022-12-18T02:43:20.635Z,1003.85
2022-12-18T02:44:22.358Z,1003.92
2022-12-18T02:45:24.084Z,1003.98
2022-12-18T02:46:25.810Z,1003.94
2022-12-18T02:47:27.563Z,1003.99
2022-12-18T02:48:29.359Z,1003.95
2022-12-18T02:49:31.060Z,1004
2022-12-18T02:50:32.756Z,1003.9
2022-12-18T02:51:34.524Z,1003.95
2022-12-18T02:52:36.275Z,1003.91
2022-12-18T02:53:38.444Z,1003.92
2022-12-18T02:54:39.678Z,1004.02
2022-12-18T02:55:41.441Z,1004.03
2022-12-18T02:56:43.141Z,1003.97
2022-12-18T02:57:44.888Z,1004.02
2022-12-18T02:58:46.631Z,1004
2022-12-18T02:59:48.416Z,1003.97
2022-12-18T03:00:50.214Z,1003.99
2022-12-18T03:01:52.100Z,1003.94
2022-12-18T03:02:53.831Z,1003.95
2022-12-18T03:03:55.312Z,1003.93
2022-12-18T03:04:57.056Z,1003.97
2022-12-18T03:05:58.812Z,1003.9
2022-12-18T03:07:00.534Z,1003.97
2022-12-18T03:08:02.255Z,1004.03
2022-12-18T03:09:03.997Z,1004.02
2022-12-18T03:10:05.722Z,1004
2022-12-18T03:11:07.466Z,1003.87
2022-12-18T03:12:09.206Z,1003.96
2022-12-18T03:13:10.908Z,1004
2022-12-18T03:14:12.630Z,1003.92
2022-12-18T03:15:17.610Z,1003.94
2022-12-18T03:16:16.153Z,1003.85
2022-12-18T03:17:17.849Z,1004
2022-12-18T03:18:19.564Z,1003.95
2022-12-18T03:19:21.342Z,1003.85
2022-12-18T03:20:23.029Z,1003.97
2022-12-18T03:21:24.808Z,1003.98
2022-12-18T03:22:26.531Z,1003.89
2022-12-18T03:23:28.232Z,1003.85
2022-12-18T03:24:29.965Z,1003.84
2022-12-18T03:25:31.691Z,1003.83
2022-12-18T03:26:33.428Z,1003.95
2022-12-18T03:27:35.167Z,1003.87
2022-12-18T03:28:36.898Z,1003.91
2022-12-18T03:29:38.629Z,1003.87
2022-12-18T03:30:40.515Z,1003.87
2022-12-18T03:31:42.121Z,1003.75
2022-12-18T03:32:43.855Z,1003.7
2022-12-18T03:33:45.581Z,1003.71
2022-12-18T03:34:47.293Z,1003.7
2022-12-18T03:35:49.039Z,1003.7
2022-12-18T03:36:50.760Z,1003.7
2022-12-18T03:37:52.483Z,1003.71
2022-12-18T03:38:54.211Z,1003.69
2022-12-18T03:39:55.946Z,1003.79
2022-12-18T03:40:57.679Z,1003.82
2022-12-18T03:41:59.416Z,1003.94
2022-12-18T03:43:01.148Z,1003.9
2022-12-18T03:44:02.887Z,1003.86
2022-12-18T03:45:04.601Z,1003.79
2022-12-18T03:46:06.412Z,1003.92
2022-12-18T03:47:08.109Z,1003.87
2022-12-18T03:48:09.807Z,1003.81
2022-12-18T03:49:11.523Z,1003.8
2022-12-18T03:50:13.300Z,1003.7
2022-12-18T03:51:15.006Z,1003.69
2022-12-18T03:52:16.719Z,1003.72
2022-12-18T03:53:18.465Z,1003.81
2022-12-18T03:54:20.199Z,1003.81
2022-12-18T03:55:21.964Z,1003.91
2022-12-18T03:56:23.668Z,1003.95
2022-12-18T03:57:25.397Z,1003.92
2022-12-18T03:58:27.141Z,1003.94
2022-12-18T03:59:28.861Z,1003.86
2022-12-18T04:00:30.640Z,1003.83
2022-12-18T04:01:32.569Z,1003.92
2022-12-18T04:02:34.165Z,1003.81
2022-12-18T04:03:36.496Z,1003.86
2022-12-18T04:04:37.544Z,1003.91
2022-12-18T04:05:39.270Z,1003.84
2022-12-18T04:06:41.015Z,1003.78
2022-12-18T04:07:42.782Z,1003.85
2022-12-18T04:08:44.495Z,1003.84
2022-12-18T04:09:46.233Z,1003.78
2022-12-18T04:10:47.939Z,1003.8
2022-12-18T04:11:49.700Z,1003.78
2022-12-18T04:12:51.411Z,1003.77
2022-12-18T04:13:53.137Z,1003.51
2022-12-18T04:14:54.866Z,1003.68
2022-12-18T04:15:56.710Z,1003.62
2022-12-18T04:16:58.343Z,1003.7
2022-12-18T04:18:00.098Z,1003.7
2022-12-18T04:19:01.809Z,1003.71
2022-12-18T04:20:03.582Z,1003.67
2022-12-18T04:21:05.330Z,1003.74
2022-12-18T04:22:07.019Z,1003.61
2022-12-18T04:23:08.762Z,1003.77
2022-12-18T04:24:10.471Z,1003.68
2022-12-18T04:25:12.223Z,1003.77
2022-12-18T04:26:13.944Z,1003.72
2022-12-18T04:27:15.694Z,1003.7
2022-12-18T04:28:17.437Z,1003.76
2022-12-18T04:29:19.202Z,1003.74
2022-12-18T04:30:20.909Z,1003.75
2022-12-18T04:31:22.765Z,1003.74
2022-12-18T04:32:24.380Z,1003.63
2022-12-18T04:33:26.141Z,1003.6
2022-12-18T04:34:27.863Z,1003.59
2022-12-18T04:35:29.566Z,1003.51
2022-12-18T04:36:31.320Z,1003.58
2022-12-18T04:37:33.025Z,1003.62
2022-12-18T04:38:34.768Z,1003.63
2022-12-18T04:39:36.490Z,1003.58
2022-12-18T04:40:38.225Z,1003.62
2022-12-18T04:41:39.948Z,1003.63
2022-12-18T04:42:41.708Z,1003.66
2022-12-18T04:43:43.506Z,1003.68
2022-12-18T04:44:45.162Z,1003.7
2022-12-18T04:45:46.890Z,1003.53
2022-12-18T04:46:48.787Z,1003.65
2022-12-18T04:47:50.364Z,1003.75
2022-12-18T04:48:52.125Z,1003.77
2022-12-18T04:49:53.871Z,1003.7
2022-12-18T04:50:55.594Z,1003.83
2022-12-18T04:51:57.339Z,1003.77
2022-12-18T04:52:59.039Z,1003.73
2022-12-18T04:54:00.818Z,1003.76
2022-12-18T04:55:02.505Z,1003.74
2022-12-18T04:56:04.225Z,1003.7
2022-12-18T04:57:05.992Z,1003.82
2022-12-18T04:58:07.713Z,1003.75
2022-12-18T04:59:09.442Z,1003.84
2022-12-18T05:00:11.186Z,1003.83
2022-12-18T05:01:13.023Z,1003.89
2022-12-18T05:02:14.830Z,1003.87
2022-12-18T05:03:16.449Z,1003.93
2022-12-18T05:04:18.216Z,1003.98
2022-12-18T05:05:19.921Z,1003.97
2022-12-18T05:06:21.574Z,1003.98
2022-12-18T05:07:23.301Z,1003.96
2022-12-18T05:08:25.063Z,1004.04
2022-12-18T05:09:26.791Z,1003.95
2022-12-18T05:10:31.179Z,1003.9
2022-12-18T05:11:30.280Z,1003.99
2022-12-18T05:12:31.991Z,1004.01
2022-12-18T05:13:33.720Z,1003.99
2022-12-18T05:14:35.448Z,1003.91
2022-12-18T05:15:37.250Z,1004.01
2022-12-18T05:16:38.930Z,1003.93
2022-12-18T05:17:40.659Z,1003.97
2022-12-18T05:18:42.401Z,1003.95
2022-12-18T05:19:44.163Z,1003.89
2022-12-18T05:20:45.888Z,1003.93
2022-12-18T05:21:47.599Z,1003.91
2022-12-18T05:22:49.320Z,1003.84
2022-12-18T05:23:51.088Z,1003.86
2022-12-18T05:24:52.842Z,1003.92
2022-12-18T05:25:54.588Z,1003.9
2022-12-18T05:26:56.272Z,1003.81
2022-12-18T05:27:57.996Z,1003.89
2022-12-18T05:28:59.725Z,1003.87
2022-12-18T05:30:01.510Z,1003.76
2022-12-18T05:31:03.272Z,1003.81
2022-12-18T05:32:05.024Z,1003.84
2022-12-18T05:33:06.659Z,1003.81
2022-12-18T05:34:08.390Z,1003.74
2022-12-18T05:35:10.170Z,1003.83
2022-12-18T05:36:11.907Z,1003.71
2022-12-18T05:37:13.601Z,1003.73
2022-12-18T05:38:15.334Z,1003.72
2022-12-18T05:39:17.133Z,1003.7
2022-12-18T05:40:18.797Z,1003.72
2022-12-18T05:41:20.570Z,1003.65
2022-12-18T05:42:22.251Z,1003.74
2022-12-18T05:43:24.025Z,1003.69
2022-12-18T05:44:25.708Z,1003.63
2022-12-18T05:45:27.466Z,1003.69
2022-12-18T05:46:29.278Z,1003.77
2022-12-18T05:47:30.928Z,1003.72
2022-12-18T05:48:32.705Z,1003.78
2022-12-18T05:49:34.452Z,1003.78
2022-12-18T05:50:36.133Z,1003.63
2022-12-18T05:51:37.863Z,1003.69
2022-12-18T05:52:39.597Z,1003.62
2022-12-18T05:53:41.644Z,1003.74
2022-12-18T05:54:43.097Z,1003.74
2022-12-18T05:55:44.904Z,1003.72
2022-12-18T05:56:48.740Z,1003.71
2022-12-18T05:57:48.265Z,1003.75
2022-12-18T05:58:50.038Z,1003.6
2022-12-18T05:59:51.731Z,1003.78
2022-12-18T06:00:53.452Z,1003.77
2022-12-18T06:01:55.403Z,1003.76
2022-12-18T06:02:57.105Z,1003.86
2022-12-18T06:03:58.768Z,1003.76
2022-12-18T06:05:00.412Z,1003.76
2022-12-18T06:06:02.139Z,1003.86
2022-12-18T06:07:03.872Z,1003.77
2022-12-18T06:08:05.642Z,1003.92
2022-12-18T06:09:07.337Z,1003.87
2022-12-18T06:10:09.073Z,1003.94
2022-12-18T06:11:10.839Z,1003.85
2022-12-18T06:12:12.582Z,1003.92
2022-12-18T06:13:14.309Z,1004
2022-12-18T06:14:16.013Z,1003.99
2022-12-18T06:15:17.732Z,1003.98
2022-12-18T06:16:19.562Z,1004.03
2022-12-18T06:17:21.293Z,1004.01
2022-12-18T06:18:22.954Z,1003.98
2022-12-18T06:19:24.699Z,1004.05
2022-12-18T06:20:31.844Z,1004.13
2022-12-18T06:21:28.133Z,1004.16
2022-12-18T06:22:29.875Z,1004.13
2022-12-18T06:23:31.625Z,1004.14
2022-12-18T06:24:33.421Z,1004.17
2022-12-18T06:25:35.116Z,1004.14
2022-12-18T06:26:36.803Z,1004.1
2022-12-18T06:27:38.533Z,1004.11
2022-12-18T06:28:40.318Z,1004.13
2022-12-18T06:29:42.004Z,1004.09
2022-12-18T06:30:43.742Z,1004.1
2022-12-18T06:31:45.599Z,1004.16
2022-12-18T06:32:50.457Z,1004.13
2022-12-18T06:33:48.940Z,1004.23
2022-12-18T06:34:50.726Z,1004.22
2022-12-18T06:35:55.366Z,1004.19
2022-12-18T06:36:54.191Z,1004.33
2022-12-18T06:37:55.924Z,1004.24
2022-12-18T06:38:57.644Z,1004.29
2022-12-18T06:39:59.403Z,1004.28
2022-12-18T06:41:01.107Z,1004.29
2022-12-18T06:42:02.824Z,1004.29
2022-12-18T06:43:04.591Z,1004.36
2022-12-18T06:44:06.294Z,1004.45
2022-12-18T06:45:08.008Z,1004.49
2022-12-18T06:46:09.822Z,1004.53
2022-12-18T06:47:11.483Z,1004.42
2022-12-18T06:48:13.238Z,1004.42
2022-12-18T06:49:14.998Z,1004.36
2022-12-18T06:50:16.681Z,1004.45
2022-12-18T06:51:18.404Z,1004.43
2022-12-18T06:52:20.185Z,1004.41
2022-12-18T06:53:21.888Z,1004.36
2022-12-18T06:54:23.670Z,1004.33
2022-12-18T06:55:25.361Z,1004.41
2022-12-18T06:56:27.965Z,1004.44
2022-12-18T06:57:28.849Z,1004.46
2022-12-18T06:58:30.602Z,1004.42
2022-12-18T06:59:32.291Z,1004.39
2022-12-18T07:00:34.036Z,1004.45
2022-12-18T07:01:35.919Z,1004.5
2022-12-18T07:02:37.667Z,1004.37
2022-12-18T07:03:39.827Z,1004.4
2022-12-18T07:04:40.964Z,1004.54
2022-12-18T07:05:42.727Z,1004.48
2022-12-18T07:06:44.424Z,1004.5
2022-12-18T07:07:46.156Z,1004.43
2022-12-18T07:08:47.926Z,1004.24
2022-12-18T07:09:49.858Z,1004.39
2022-12-18T07:10:55.946Z,1004.39
2022-12-18T07:11:53.094Z,1004.31
2022-12-18T07:12:54.864Z,1004.43
2022-12-18T07:13:56.636Z,1004.3
2022-12-18T07:14:58.333Z,1004.28
2022-12-18T07:16:00.061Z,1004.37
2022-12-18T07:17:02.104Z,1004.37
2022-12-18T07:18:03.539Z,1004.4
2022-12-18T07:19:05.218Z,1004.25
2022-12-18T07:20:06.979Z,1004.21
2022-12-18T07:21:08.733Z,1004.3
2022-12-18T07:22:10.415Z,1004.25
2022-12-18T07:23:12.145Z,1004.2
2022-12-18T07:24:13.920Z,1004.36
2022-12-18T07:25:15.622Z,1004.35
2022-12-18T07:26:17.365Z,1004.27
2022-12-18T07:27:19.099Z,1004.32
2022-12-18T07:28:20.820Z,1004.29
2022-12-18T07:29:22.590Z,1004.19
2022-12-18T07:30:24.293Z,1004.22
2022-12-18T07:31:26.150Z,1004.24
2022-12-18T07:32:27.760Z,1004.32
2022-12-18T07:33:29.500Z,1004.32
2022-12-18T07:34:31.272Z,1004.39
2022-12-18T07:35:32.954Z,1004.4
2022-12-18T07:36:34.810Z,1004.28
2022-12-18T07:37:36.494Z,1004.43
2022-12-18T07:38:38.205Z,1004.44
2022-12-18T07:39:39.943Z,1004.45
2022-12-18T07:40:41.628Z,1004.4
2022-12-18T07:41:46.771Z,1004.47
2022-12-18T07:42:45.119Z,1004.47
2022-12-18T07:43:46.847Z,1004.46
2022-12-18T07:44:48.572Z,1004.53
2022-12-18T07:45:50.354Z,1004.58
2022-12-18T07:46:52.043Z,1004.51
2022-12-18T07:47:53.777Z,1004.55
2022-12-18T07:48:55.606Z,1004.63
2022-12-18T07:49:57.242Z,1004.54
2022-12-18T07:50:58.978Z,1004.58
2022-12-18T07:52:00.761Z,1004.57
2022-12-18T07:53:02.488Z,1004.66
2022-12-18T07:54:04.174Z,1004.61
2022-12-18T07:55:05.927Z,1004.7
2022-12-18T07:56:27.012Z,1004.7
2022-12-18T07:57:21.269Z,1004.64
2022-12-18T07:59:12.874Z,1004.74
2022-12-18T08:00:13.433Z,1004.77
2022-12-18T08:00:14.638Z,1004.77
2022-12-18T08:01:16.477Z,1004.73
2022-12-18T08:02:18.260Z,1004.52
2022-12-18T08:03:19.874Z,1004.62
2022-12-18T08:04:21.545Z,1004.66
2022-12-18T08:05:23.297Z,1004.73
2022-12-18T08:06:25.066Z,1004.68
2022-12-18T08:07:26.752Z,1004.63
2022-12-18T08:08:28.483Z,1004.72
2022-12-18T08:09:30.226Z,1004.72
2022-12-18T08:10:31.937Z,1004.65
2022-12-18T08:11:33.785Z,1004.6
2022-12-18T08:12:35.389Z,1004.7
2022-12-18T08:13:37.397Z,1004.64
2022-12-18T08:14:38.882Z,1004.72
2022-12-18T08:15:40.628Z,1004.71
2022-12-18T08:16:42.415Z,1004.65
2022-12-18T08:17:49.416Z,1004.61
2022-12-18T08:18:56.876Z,1004.71
2022-12-18T08:19:57.886Z,1004.64
2022-12-18T08:20:59.592Z,1004.69
2022-12-18T08:22:01.537Z,1004.74
2022-12-18T08:23:03.037Z,1004.68
2022-12-18T08:24:07.212Z,1004.79
2022-12-18T08:25:12.742Z,1004.63
2022-12-18T08:26:14.944Z,1004.73
2022-12-18T08:27:29.311Z,1004.63
2022-12-18T08:28:32.589Z,1004.72
2022-12-18T08:29:33.345Z,1004.62
2022-12-18T08:30:35.822Z,1004.65
2022-12-18T08:31:37.504Z,1004.61
2022-12-18T08:32:39.213Z,1004.59
2022-12-18T08:33:41.658Z,1004.6
2022-12-18T08:34:42.703Z,1004.56
2022-12-18T08:35:46.135Z,1004.46
2022-12-18T08:36:46.138Z,1004.58
2022-12-18T08:37:47.867Z,1004.59
2022-12-18T08:38:49.635Z,1004.59
2022-12-18T08:39:51.363Z,1004.61
2022-12-18T08:40:53.153Z,1004.55
2022-12-18T08:41:54.834Z,1004.49
2022-12-18T08:42:56.530Z,1004.45
2022-12-18T08:43:58.307Z,1004.59
2022-12-18T08:45:00.041Z,1004.51
2022-12-18T08:46:01.852Z,1004.53
2022-12-18T08:47:03.526Z,1004.41
2022-12-18T08:48:05.215Z,1004.41
2022-12-18T08:49:06.949Z,1004.23
2022-12-18T08:50:08.956Z,1004.3
2022-12-18T08:51:10.398Z,1004.28
2022-12-18T08:52:12.136Z,1004.29
2022-12-18T08:53:13.909Z,1004.27
2022-12-18T08:54:15.627Z,1004.3
2022-12-18T08:55:17.369Z,1004.31
2022-12-18T08:56:19.095Z,1004.25
2022-12-18T08:57:20.861Z,1004.19
2022-12-18T08:58:22.605Z,1004.3
2022-12-18T08:59:24.273Z,1004.26
2022-12-18T09:00:26.013Z,1004.28
2022-12-18T09:01:27.933Z,1004.27
2022-12-18T09:02:29.701Z,1004.28
2022-12-18T09:03:31.352Z,1004.23
2022-12-18T09:04:32.950Z,1004.32
2022-12-18T09:05:34.676Z,1004.27
2022-12-18T09:06:36.421Z,1004.38
2022-12-18T09:07:42.593Z,1003.79
2022-12-18T09:08:45.183Z,1004.43
2022-12-18T09:09:46.842Z,1004.37
2022-12-18T09:10:48.582Z,1004.47
2022-12-18T09:11:50.280Z,1004.47
2022-12-18T09:12:52.022Z,1004.5
2022-12-18T09:13:53.779Z,1004.51
2022-12-18T09:14:55.428Z,1004.47
2022-12-18T09:15:57.203Z,1004.5
2022-12-18T09:16:58.944Z,1004.56
2022-12-18T09:18:00.676Z,1004.59
2022-12-18T09:19:02.387Z,1004.55
2022-12-18T09:20:04.164Z,1004.62
2022-12-18T09:21:05.878Z,1004.55
2022-12-18T09:22:07.604Z,1004.61
2022-12-18T09:23:09.316Z,1004.6
2022-12-18T09:24:11.038Z,1004.55
2022-12-18T09:25:12.834Z,1004.62
2022-12-18T09:26:14.507Z,1004.62
2022-12-18T09:27:16.282Z,1004.67
2022-12-18T09:28:17.994Z,1004.66
2022-12-18T09:29:19.697Z,1004.63
2022-12-18T09:30:21.459Z,1004.57
2022-12-18T09:31:23.300Z,1004.62
2022-12-18T09:32:24.930Z,1004.65
2022-12-18T09:33:26.650Z,1004.69
2022-12-18T09:34:29.381Z,1004.68
2022-12-18T09:35:30.130Z,1004.65
2022-12-18T09:36:31.890Z,1004.68
2022-12-18T09:37:33.597Z,1004.63
2022-12-18T09:38:35.425Z,1004.56
2022-12-18T09:39:39.059Z,1004.55
2022-12-18T09:40:43.995Z,1004.55
2022-12-18T09:41:45.692Z,1004.61
2022-12-18T09:42:47.401Z,1004.59
2022-12-18T09:43:49.148Z,1004.54
2022-12-18T09:44:50.914Z,1004.58
2022-12-18T09:45:52.645Z,1004.59
2022-12-18T09:46:54.319Z,1004.57
2022-12-18T09:47:56.075Z,1004.48
2022-12-18T09:48:57.860Z,1004.59
2022-12-18T09:49:59.992Z,1004.62
2022-12-18T09:51:01.490Z,1004.6
2022-12-18T09:52:03.415Z,1004.55
2022-12-18T09:53:04.964Z,1004.62
2022-12-18T09:54:11.629Z,1004.19
2022-12-18T09:55:13.553Z,1004.55
2022-12-18T09:56:15.276Z,1004.49
2022-12-18T09:57:16.954Z,1004.5
2022-12-18T09:58:18.734Z,1004.46
2022-12-18T09:59:20.466Z,1004.49
2022-12-18T10:00:22.398Z,1004.55
2022-12-18T10:01:24.253Z,1004.51
2022-12-18T10:02:25.844Z,1004.47
2022-12-18T10:03:27.402Z,1004.47
2022-12-18T10:04:29.131Z,1004.51
2022-12-18T10:05:35.783Z,1004.63
2022-12-18T10:06:37.499Z,1004.58
2022-12-18T10:07:39.182Z,1004.54
2022-12-18T10:08:41.291Z,1004.56
2022-12-18T10:09:42.641Z,1004.56
2022-12-18T10:10:44.432Z,1004.66
2022-12-18T10:11:46.102Z,1004.57
2022-12-18T10:12:49.011Z,1004.29
2022-12-18T10:13:49.612Z,1004.5
2022-12-18T10:14:56.436Z,1004.38
2022-12-18T10:15:58.312Z,1004.4
2022-12-18T10:17:00.019Z,1004.33
2022-12-18T10:18:01.679Z,1004.37
2022-12-18T10:19:03.421Z,1004.3
2022-12-18T10:20:05.113Z,1004.37
2022-12-18T10:21:06.876Z,1004.4
2022-12-18T10:22:07.790Z,1004.26
2022-12-18T10:23:10.217Z,1004.34
2022-12-18T10:24:11.906Z,1004.31
2022-12-18T10:25:13.641Z,1004.26
2022-12-18T10:26:15.360Z,1004.21
2022-12-18T10:27:17.099Z,1004.26
2022-12-18T10:28:18.869Z,1004.28
2022-12-18T10:29:20.574Z,1004.26
2022-12-18T10:31:05.628Z,1004.3
2022-12-18T10:32:42.686Z,1004.27
2022-12-18T10:33:44.290Z,1004.28
2022-12-18T10:34:46.102Z,1004.33
2022-12-18T10:35:47.727Z,1004.37
2022-12-18T10:36:49.471Z,1004.37
2022-12-18T10:37:51.232Z,1004.34
2022-12-18T10:38:52.985Z,1004.34
2022-12-18T10:39:54.702Z,1004.33
2022-12-18T10:40:56.427Z,1004.34
2022-12-18T10:41:58.138Z,1004.33
2022-12-18T10:42:59.920Z,1004.45
2022-12-18T10:44:01.619Z,1004.48
2022-12-18T10:45:03.378Z,1004.49
2022-12-18T10:46:05.144Z,1004.43
2022-12-18T10:47:11.693Z,1004.42
2022-12-18T10:48:08.547Z,1004.33
2022-12-18T10:49:10.332Z,1004.36
2022-12-18T10:50:12.051Z,1004.39
2022-12-18T10:51:14.008Z,1004.36
2022-12-18T10:52:15.574Z,1004.41
2022-12-18T10:53:17.468Z,1004.45
2022-12-18T10:54:18.970Z,1004.41
2022-12-18T10:55:20.695Z,1004.29
2022-12-18T10:56:22.465Z,1004.41
2022-12-18T10:57:24.159Z,1004.39
2022-12-18T10:58:26.933Z,1004.47
2022-12-18T10:59:27.682Z,1004.38
2022-12-18T11:00:29.423Z,1004.34
2022-12-18T11:01:31.292Z,1004.36
2022-12-18T11:02:33.223Z,1004.35
2022-12-18T11:03:34.666Z,1004.41
2022-12-18T11:04:36.334Z,1004.27
2022-12-18T11:05:38.101Z,1004.34
2022-12-18T11:06:39.810Z,1004.31
2022-12-18T11:07:41.528Z,1004.33
2022-12-18T11:08:43.681Z,1004.3
2022-12-18T11:09:45.009Z,1004.32
2022-12-18T11:10:46.734Z,1004.41
2022-12-18T11:11:48.460Z,1004.21
2022-12-18T11:12:50.232Z,1004.42
2022-12-18T11:13:51.926Z,1004.45
2022-12-18T11:15:03.984Z,1004.4
2022-12-18T11:16:05.827Z,1004.46
2022-12-18T11:17:25.565Z,1004.5
2022-12-18T11:18:43.041Z,1004.48
2022-12-18T11:19:46.514Z,1004.44
2022-12-18T11:20:47.201Z,1004.51
2022-12-18T11:21:48.900Z,1004.47
2022-12-18T11:22:50.623Z,1004.54
2022-12-18T11:23:52.420Z,1004.5
2022-12-18T11:25:29.457Z,1004.41
2022-12-18T11:25:55.831Z,1004.5
2022-12-18T11:26:59.851Z,1004.41
2022-12-18T11:27:59.297Z,1004.44
2022-12-18T11:29:01.352Z,1004.39
2022-12-18T11:30:02.902Z,1004.36
2022-12-18T11:31:04.529Z,1004.44
2022-12-18T11:32:06.232Z,1004.34
2022-12-18T11:33:07.952Z,1004.38
2022-12-18T11:34:28.672Z,1004.29
2022-12-18T11:35:11.472Z,1004.29
2022-12-18T11:36:13.210Z,1004.27
2022-12-18T11:37:14.890Z,1004.34
2022-12-18T11:38:16.632Z,1004.32
2022-12-18T11:39:18.356Z,1004.37
2022-12-18T11:40:20.118Z,1004.41
2022-12-18T11:41:22.086Z,1004.41
2022-12-18T11:42:23.822Z,1004.41
2022-12-18T11:43:25.298Z,1004.38
2022-12-18T11:44:27.023Z,1004.36
2022-12-18T11:45:28.738Z,1004.3
2022-12-18T11:46:30.516Z,1004.3
2022-12-18T11:47:32.269Z,1004.31
2022-12-18T11:48:33.945Z,1004.31
2022-12-18T11:49:35.716Z,1004.15
2022-12-18T11:50:37.467Z,1004.29
2022-12-18T11:51:39.139Z,1004.33
2022-12-18T11:52:42.242Z,1004.28
2022-12-18T11:53:42.607Z,1004.28
2022-12-18T11:54:44.337Z,1004.39
2022-12-18T11:55:46.137Z,1004.38
2022-12-18T11:56:47.814Z,1004.38
2022-12-18T11:57:49.595Z,1004.39
2022-12-18T11:58:51.286Z,1004.42
2022-12-18T11:59:53.005Z,1004.44
2022-12-18T12:00:54.781Z,1004.45
2022-12-18T12:01:56.784Z,1004.3
2022-12-18T12:02:58.290Z,1004.38
2022-12-18T12:04:00.000Z,1004.26
2022-12-18T12:05:01.786Z,1004.27
2022-12-18T12:06:03.416Z,1004.22
2022-12-18T12:07:05.227Z,1004.17
2022-12-18T12:08:06.896Z,1004.21
2022-12-18T12:09:08.620Z,1004.18
2022-12-18T12:10:10.342Z,1004.28
2022-12-18T12:11:12.135Z,1004.21
2022-12-18T12:12:13.889Z,1004.18
2022-12-18T12:13:15.544Z,1004.16
2022-12-18T12:14:17.301Z,1004.2
2022-12-18T12:15:19.001Z,1004.21
2022-12-18T12:16:20.894Z,1004.21
2022-12-18T12:17:22.499Z,1004.23
2022-12-18T12:18:24.199Z,1004.18
2022-12-18T12:19:25.949Z,1003.74
2022-12-18T12:20:27.674Z,1004.22
2022-12-18T12:21:29.415Z,1004.17
2022-12-18T12:22:31.143Z,1004.17
2022-12-18T12:23:32.859Z,1004.18
2022-12-18T12:24:34.610Z,1004.17
2022-12-18T12:25:36.322Z,1004.19
2022-12-18T12:26:38.090Z,1004.11
2022-12-18T12:27:39.807Z,1004.09
2022-12-18T12:28:41.886Z,1003.79
2022-12-18T12:29:43.266Z,1004.03
2022-12-18T12:30:45.034Z,1004.07
2022-12-18T12:31:46.819Z,1004
2022-12-18T12:32:48.487Z,1003.95
2022-12-18T12:33:50.199Z,1003.84